General Aviation Weather

Text Reports

Enter one or more of the following location identifiers separated by a space:

Zip Code, Four-Character ICAO or Three-Character IATA airport codes.

METAR - Aviation Routine Weather Report
KXVG - Longville, Minnesota
Updated at 3:36 AM GMT on July 24, 2016 (10:36 PM CDT):
METAR KXVG 240336Z AUTO 00000KT 10SM OVC015 21/19 A2976 RMK AO2
TAF - Terminal Area Forecast
KXVG - Longville, Minnesota
Updated at 3:36 AM GMT on July 24, 2016 (10:36 PM CDT):
No TAF is currently available for this location.
Decoded:
No decoded TAF is available.
PIREP - Pilot Weather Report
KXVG - Longville, Minnesota
Updated at 3:36 AM GMT on July 24, 2016 (10:36 PM CDT):
No PIREP is currently available for this location.
AIRMET - Airmens Meteorological Information
KXVG - Longville, Minnesota
Updated at 3:36 AM GMT on July 24, 2016 (10:36 PM CDT):
No AIRMET is currently available for this location.
SIGMET - Significant Meteorological Information
KXVG - Longville, Minnesota
Updated at 3:36 AM GMT on July 24, 2016 (10:36 PM CDT):
No SIGMET is currently available for this location.
NOTAM - Notice to Airmen
KXVG - Longville, Minnesota
Updated at 3:36 AM GMT on July 24, 2016 (10:36 PM CDT):
No NOTAM is currently available for this location.
Forecast Area
KXVG - Longville, Minnesota
Updated at 3:36 AM GMT on July 24, 2016 (10:36 PM CDT):
No NOTAM is currently available for this location.
Aviation Weather Maps